Time;durP1;ratioP1;P1;durP2;ratioP2;P2;SDS_P1;SDS_P2;PMS_P1;PMS_P2;Temp;Humidity;BMP_temperature;BMP_pressure;BME280_temperature;BME280_humidity;BME280_pressure;Samples;Min_cycle;Max_cycle;Signal;HPM_P1;HPM_P2
2022/01/27 00:00:38;;;;;;;9.98;8.95;;;;;;;-142.02;100.00;61695.09;4932640;29;20168;-72
2022/01/27 00:03:21;;;;;;;8.68;7.07;;;;;;;-142.02;100.00;61695.09;4981008;28;20070;-71
2022/01/27 00:05:53;;;;;;;;;;;;;;;-142.02;100.00;61695.09;4995396;28;20399;-70
2022/01/27 00:08:27;;;;;;;12.43;7.82;;;;;;;-142.02;100.00;61695.09;5012480;28;19932;-70
2022/01/27 00:10:59;;;;;;;8.00;7.18;;;;;;;-142.02;100.00;61695.09;4996403;28;20583;-72
2022/01/27 00:13:30;;;;;;;10.27;9.27;;;;;;;-142.02;100.00;61695.09;4982380;28;20144;-70
2022/01/27 00:16:13;;;;;;;9.27;8.38;;;;;;;-142.02;100.00;61695.09;5013972;28;20429;-70
2022/01/27 00:18:43;;;;;;;10.60;8.52;;;;;;;-142.02;100.00;61695.09;4969789;28;20042;-71
2022/01/27 00:21:09;;;;;;;9.60;8.50;;;;;;;-142.02;100.00;61695.09;4996587;28;20038;-71
2022/01/27 00:23:35;;;;;;;8.75;8.02;;;;;;;-142.02;100.00;61695.09;4963279;28;20042;-70
2022/01/27 00:26:02;;;;;;;10.48;8.60;;;;;;;-142.02;100.00;61695.09;4978625;28;20045;-72
2022/01/27 00:28:28;;;;;;;3.10;2.90;;;;;;;-142.02;100.00;61695.09;5018267;28;20053;-71
2022/01/27 00:30:54;;;;;;;15.15;9.05;;;;;;;-142.02;100.00;61695.09;5030398;28;20136;-71
2022/01/27 00:33:20;;;;;;;10.60;9.50;;;;;;;-142.02;100.00;61695.09;5030614;28;20064;-70
2022/01/27 00:35:47;;;;;;;16.58;10.63;;;;;;;-142.02;100.00;61695.09;5032056;28;20061;-70
2022/01/27 00:38:13;;;;;;;19.58;13.00;;;;;;;-142.02;100.00;61695.09;5030289;28;20100;-72
2022/01/27 00:40:39;;;;;;;15.32;10.20;;;;;;;-142.02;100.00;61695.09;5014065;28;20055;-70
2022/01/27 00:43:05;;;;;;;22.90;17.40;;;;;;;-142.02;100.00;61695.09;4997384;28;20045;-70
2022/01/27 00:45:32;;;;;;;15.07;10.93;;;;;;;-142.02;100.00;61695.09;5014152;28;20057;-68
2022/01/27 00:48:02;;;;;;;26.88;15.90;;;;;;;-142.02;100.00;61695.09;5013703;28;20056;-69
2022/01/27 00:50:28;;;;;;;25.33;13.50;;;;;;;-142.02;100.00;61695.09;5001555;28;20065;-70
2022/01/27 00:52:57;;;;;;;12.32;9.13;;;;;;;-142.02;100.00;61695.09;4993965;28;20064;-71
2022/01/27 00:55:25;;;;;;;13.90;11.30;;;;;;;-142.02;100.00;61695.09;5004582;28;20050;-71
2022/01/27 01:00:23;;;;;;;13.82;10.07;;;;;;;-142.02;100.00;61695.09;5011279;28;20054;-71
2022/01/27 01:07:57;;;;;;;10.18;8.98;;;;;;;-142.02;100.00;61695.09;5010259;28;20041;-72
2022/01/27 01:29:54;;;;;;;8.55;6.15;;;;;;;-142.02;100.00;61695.09;5009724;28;20110;-71
2022/01/27 01:32:42;;;;;;;8.68;7.18;;;;;;;-142.02;100.00;61695.09;5010980;28;20045;-71
2022/01/27 01:35:09;;;;;;;10.48;7.72;;;;;;;-142.02;100.00;61695.09;5009828;28;20045;-71
2022/01/27 01:37:41;;;;;;;7.07;6.30;;;;;;;-142.02;100.00;61695.09;5010749;28;20042;-71
2022/01/27 01:40:10;;;;;;;9.57;6.50;;;;;;;-142.02;100.00;61695.09;5009577;28;20054;-70
2022/01/27 01:42:37;;;;;;;11.27;7.32;;;;;;;-142.02;100.00;61695.09;4993249;28;20072;-71
2022/01/27 01:45:04;;;;;;;7.75;5.30;;;;;;;-142.02;100.00;61695.09;5009289;28;20046;-71
2022/01/27 01:47:30;;;;;;;9.52;6.25;;;;;;;-142.02;100.00;61695.09;5009672;28;20049;-71
2022/01/27 01:49:57;;;;;;;4.65;3.88;;;;;;;-142.02;100.00;61695.09;5010760;28;20050;-72
2022/01/27 01:52:22;;;;;;;4.60;4.13;;;;;;;-142.02;100.00;61695.09;4992768;28;20062;-70
2022/01/27 01:54:49;;;;;;;7.43;6.18;;;;;;;-142.02;100.00;61695.09;5009543;28;20049;-71
2022/01/27 01:57:14;;;;;;;9.82;5.55;;;;;;;-142.02;100.00;61695.09;4989958;28;20056;-71
2022/01/27 01:59:42;;;;;;;4.97;4.57;;;;;;;-142.02;100.00;61695.09;4993244;28;20135;-71
2022/01/27 02:02:12;;;;;;;7.53;5.55;;;;;;;-142.02;100.00;61695.09;4992762;28;20070;-71
2022/01/27 02:04:39;;;;;;;6.80;6.18;;;;;;;-142.02;100.00;61695.09;4993086;28;20045;-72
2022/01/27 02:07:12;;;;;;;5.57;4.85;;;;;;;-142.02;100.00;61695.09;4976506;28;20557;-71
2022/01/27 02:10:04;;;;;;;8.23;5.80;;;;;;;-142.02;100.00;61695.09;4994111;28;20101;-71
2022/01/27 02:18:00;;;;;;;7.38;6.63;;;;;;;-142.02;100.00;61695.09;5011234;28;20046;-72
2022/01/27 02:20:31;;;;;;;2.53;2.42;;;;;;;-142.02;100.00;61695.09;5012235;28;20104;-71
2022/01/27 02:22:57;;;;;;;7.82;7.13;;;;;;;-142.02;100.00;61695.09;4993844;28;20107;-71
2022/01/27 02:25:24;;;;;;;5.68;5.07;;;;;;;-142.02;100.00;61695.09;4992675;28;20049;-71
2022/01/27 02:27:54;;;;;;;10.30;6.47;;;;;;;-142.02;100.00;61695.09;4992310;28;20145;-70
2022/01/27 02:30:22;;;;;;;6.40;5.80;;;;;;;-142.02;100.00;61695.09;5009680;28;20038;-70
2022/01/27 02:32:50;;;;;;;7.25;6.15;;;;;;;-142.02;100.00;61695.09;4992240;28;20568;-71
2022/01/27 02:35:15;;;;;;;8.13;6.32;;;;;;;-142.02;100.00;61695.09;5009749;28;20050;-71
2022/01/27 02:37:42;;;;;;;9.95;6.88;;;;;;;-142.02;100.00;61695.09;4992233;28;20054;-71
2022/01/27 02:40:09;;;;;;;4.72;4.25;;;;;;;-142.02;100.00;61695.09;4992331;28;20100;-70
2022/01/27 02:42:35;;;;;;;6.85;6.25;;;;;;;-142.02;100.00;61695.09;4992581;28;20054;-71
2022/01/27 02:45:08;;;;;;;6.47;5.88;;;;;;;-142.02;100.00;61695.09;4976057;28;20041;-73
2022/01/27 02:47:34;;;;;;;7.40;6.22;;;;;;;-142.02;100.00;61695.09;5009623;28;20046;-71
2022/01/27 02:50:00;;;;;;;7.75;6.32;;;;;;;-142.02;100.00;61695.09;4960178;28;20517;-73
2022/01/27 02:52:26;;;;;;;4.75;4.28;;;;;;;-142.02;100.00;61695.09;4991786;28;20113;-71
2022/01/27 02:54:52;;;;;;;7.13;6.10;;;;;;;-142.02;100.00;61695.09;4991948;28;20613;-71
2022/01/27 02:57:19;;;;;;;5.80;5.25;;;;;;;-142.02;100.00;61695.09;4991546;28;20056;-72
2022/01/27 02:59:46;;;;;;;9.55;7.13;;;;;;;-142.02;100.00;61695.09;5009905;28;20053;-71
2022/01/27 03:02:12;;;;;;;5.68;5.18;;;;;;;-142.02;100.00;61695.09;4975837;28;20112;-72
2022/01/27 03:04:38;;;;;;;5.60;5.07;;;;;;;-142.02;100.00;61695.09;5009777;28;20046;-72
2022/01/27 03:07:05;;;;;;;8.23;5.72;;;;;;;-142.02;100.00;61695.09;5008957;28;20046;-72
2022/01/27 03:09:34;;;;;;;7.40;6.22;;;;;;;-142.02;100.00;61695.09;4991899;28;20058;-72
2022/01/27 03:12:02;;;;;;;8.18;6.88;;;;;;;-142.02;100.00;61695.09;5009166;28;20837;-72
2022/01/27 03:14:29;;;;;;;7.47;6.28;;;;;;;-142.02;100.00;61695.09;4976169;28;20554;-72
2022/01/27 03:16:57;;;;;;;6.75;5.85;;;;;;;-142.02;100.00;61695.09;4992071;28;20056;-72
2022/01/27 03:19:23;;;;;;;6.72;6.13;;;;;;;-142.02;100.00;61695.09;5009385;28;20046;-72
2022/01/27 03:21:49;;;;;;;6.97;5.75;;;;;;;-142.02;100.00;61695.09;5009417;28;20042;-71
2022/01/27 03:24:16;;;;;;;7.63;6.32;;;;;;;-142.02;100.00;61695.09;5009456;28;20132;-71
2022/01/27 03:26:43;;;;;;;11.57;6.70;;;;;;;-142.02;100.00;61695.09;5009448;28;20054;-71
2022/01/27 03:29:09;;;;;;;15.73;8.32;;;;;;;-142.02;100.00;61695.09;4975557;28;20473;-73
2022/01/27 03:31:35;;;;;;;9.10;8.23;;;;;;;-142.02;100.00;61695.09;4991475;28;20058;-71
2022/01/27 03:34:01;;;;;;;11.82;7.75;;;;;;;-142.02;100.00;61695.09;5009469;28;20429;-70
2022/01/27 03:36:27;;;;;;;13.85;8.77;;;;;;;-142.02;100.00;61695.09;4975238;28;20072;-72
2022/01/27 03:38:53;;;;;;;10.07;8.07;;;;;;;-142.02;100.00;61695.09;5015926;28;20273;-71
2022/01/27 03:41:21;;;;;;;9.52;7.80;;;;;;;-142.02;100.00;61695.09;4988285;28;20725;-71
2022/01/27 03:43:48;;;;;;;16.80;9.98;;;;;;;-142.02;100.00;61695.09;4989596;28;20073;-71
2022/01/27 03:46:14;;;;;;;16.48;12.02;;;;;;;-142.02;100.00;61695.09;4988345;28;20046;-69
2022/01/27 03:48:40;;;;;;;13.23;10.40;;;;;;;-142.02;100.00;61695.09;4972253;28;20181;-72
2022/01/27 03:51:06;;;;;;;18.83;10.25;;;;;;;-142.02;100.00;61695.09;4956076;28;20526;-70
2022/01/27 03:53:32;;;;;;;14.02;9.90;;;;;;;-142.02;100.00;61695.09;4989325;28;20513;-72
2022/01/27 03:55:58;;;;;;;6.38;5.78;;;;;;;-142.02;100.00;61695.09;4989583;28;20046;-71
2022/01/27 03:58:25;;;;;;;11.57;8.18;;;;;;;-142.02;100.00;61695.09;5003279;28;20072;-72
2022/01/27 04:00:51;;;;;;;10.50;7.95;;;;;;;-142.02;100.00;61695.09;5008058;28;20049;-72
2022/01/27 04:03:19;;;;;;;7.45;6.80;;;;;;;-142.02;100.00;61695.09;5008606;28;20490;-72
2022/01/27 04:05:55;;;;;;;8.00;7.30;;;;;;;-142.02;100.00;61695.09;5007936;28;20132;-72
2022/01/27 04:08:22;;;;;;;11.18;6.97;;;;;;;-142.02;100.00;61695.09;5010744;28;20049;-73
2022/01/27 04:10:49;;;;;;;7.57;6.85;;;;;;;-142.02;100.00;61695.09;5012710;28;20081;-72
2022/01/27 04:13:16;;;;;;;9.63;8.43;;;;;;;-142.02;100.00;61695.09;5015078;28;20140;-71
2022/01/27 04:15:42;;;;;;;7.88;7.07;;;;;;;-142.02;100.00;61695.09;4995515;28;20045;-71
2022/01/27 04:18:09;;;;;;;10.75;6.97;;;;;;;-142.02;100.00;61695.09;5011138;28;20045;-72
2022/01/27 04:20:37;;;;;;;9.25;8.18;;;;;;;-142.02;100.00;61695.09;4993027;28;20045;-70
2022/01/27 04:23:03;;;;;;;10.10;8.15;;;;;;;-142.02;100.00;61695.09;5013451;28;20141;-72
2022/01/27 04:25:29;;;;;;;8.65;7.70;;;;;;;-142.02;100.00;61695.09;4994492;28;20053;-72
2022/01/27 04:28:00;;;;;;;8.95;7.97;;;;;;;-142.02;100.00;61695.09;4994689;28;20049;-72
2022/01/27 04:30:27;;;;;;;9.27;7.63;;;;;;;-142.02;100.00;61695.09;5011400;28;20054;-73
2022/01/27 04:32:59;;;;;;;8.50;6.32;;;;;;;-142.02;100.00;61695.09;5010264;28;20085;-71
2022/01/27 04:35:27;;;;;;;8.20;6.40;;;;;;;-142.02;100.00;61695.09;4994107;28;20144;-71
2022/01/27 04:40:25;;;;;;;4.78;4.32;;;;;;;-142.02;100.00;61695.09;5011063;28;20069;-71
2022/01/27 04:43:40;;;;;;;4.05;3.78;;;;;;;-142.02;100.00;61695.09;5011236;28;20530;-71
2022/01/27 04:48:14;;;;;;;7.50;6.57;;;;;;;-142.02;100.00;61695.09;5010672;28;20120;-71
2022/01/27 04:50:41;;;;;;;6.63;4.13;;;;;;;-142.02;100.00;61695.09;5009150;28;20046;-71
2022/01/27 04:53:18;;;;;;;6.35;5.75;;;;;;;-142.02;100.00;61695.09;4999739;28;20062;-71
2022/01/27 04:55:44;;;;;;;8.68;7.25;;;;;;;-142.02;100.00;61695.09;4992770;28;20057;-71
2022/01/27 04:58:15;;;;;;;10.48;6.97;;;;;;;-142.02;100.00;61695.09;5010459;28;20050;-71
2022/01/27 05:00:42;;;;;;;5.28;4.82;;;;;;;-142.02;100.00;61695.09;4978007;28;20038;-70
2022/01/27 05:03:56;;;;;;;8.38;3.72;;;;;;;-142.02;100.00;61695.09;4992996;28;20149;-71
2022/01/27 05:05:58;;;;;;;13.88;10.13;;;;;;;-142.02;100.00;61695.09;5002580;28;20104;-70
2022/01/27 05:08:25;;;;;;;4.68;4.28;;;;;;;-142.02;100.00;61695.09;5010861;28;20061;-70
2022/01/27 05:10:59;;;;;;;11.55;8.98;;;;;;;-142.02;100.00;61695.09;5012509;28;20418;-69
2022/01/27 05:13:28;;;;;;;7.15;6.20;;;;;;;-142.02;100.00;61695.09;4993060;28;20061;-71
2022/01/27 05:15:54;;;;;;;11.50;8.23;;;;;;;-142.02;100.00;61695.09;4993247;28;20050;-70
2022/01/27 05:18:21;;;;;;;11.60;8.05;;;;;;;-142.02;100.00;61695.09;4992994;28;20060;-72
2022/01/27 05:20:48;;;;;;;13.85;9.43;;;;;;;-142.02;100.00;61695.09;4993393;28;20073;-70
2022/01/27 05:23:14;;;;;;;9.57;8.10;;;;;;;-142.02;100.00;61695.09;5010324;28;20537;-70
2022/01/27 05:25:40;;;;;;;7.78;6.22;;;;;;;-142.02;100.00;61695.09;5010445;28;20810;-71
2022/01/27 05:28:06;;;;;;;8.45;7.75;;;;;;;-142.02;100.00;61695.09;5010032;28;20065;-71
2022/01/27 05:30:33;;;;;;;13.77;8.38;;;;;;;-142.02;100.00;61695.09;5010323;28;20065;-72
2022/01/27 05:33:00;;;;;;;9.70;7.63;;;;;;;-142.02;100.00;61695.09;4992804;28;20050;-72
2022/01/27 05:35:26;;;;;;;10.32;8.40;;;;;;;-142.02;100.00;61695.09;4985760;28;20145;-73
2022/01/27 05:37:52;;;;;;;9.77;7.07;;;;;;;-142.02;100.00;61695.09;4989390;28;20152;-72
2022/01/27 05:40:18;;;;;;;12.43;8.00;;;;;;;-142.02;100.00;61695.09;4992143;28;20156;-71
2022/01/27 05:42:44;;;;;;;8.10;7.30;;;;;;;-142.02;100.00;61695.09;5010709;28;20080;-71
2022/01/27 05:45:10;;;;;;;13.25;8.95;;;;;;;-142.02;100.00;61695.09;5009947;28;20046;-71
2022/01/27 05:47:37;;;;;;;9.30;7.78;;;;;;;-142.02;100.00;61695.09;4992261;28;20656;-75
2022/01/27 05:50:03;;;;;;;7.00;5.90;;;;;;;-142.02;100.00;61695.09;5009121;28;20046;-71
2022/01/27 05:52:30;;;;;;;7.00;6.35;;;;;;;-142.02;100.00;61695.09;5012397;28;20045;-72
2022/01/27 05:54:58;;;;;;;11.13;8.70;;;;;;;-142.02;100.00;61695.09;4995683;28;20053;-72
2022/01/27 05:57:24;;;;;;;11.45;9.85;;;;;;;-142.02;100.00;61695.09;4989922;28;20053;-72
2022/01/27 05:59:50;;;;;;;13.10;9.45;;;;;;;-142.02;100.00;61695.09;5028618;28;20057;-71
2022/01/27 06:02:18;;;;;;;12.15;9.02;;;;;;;-142.02;100.00;61695.09;5012005;28;20043;-70
2022/01/27 06:04:44;;;;;;;14.82;7.72;;;;;;;-142.02;100.00;61695.09;5029897;28;20144;-70
2022/01/27 06:07:11;;;;;;;6.65;6.00;;;;;;;-142.02;100.00;61695.09;4979629;28;20156;-71
2022/01/27 06:09:37;;;;;;;14.60;11.38;;;;;;;-142.02;100.00;61695.09;5032587;28;20045;-71
2022/01/27 06:12:03;;;;;;;14.70;9.07;;;;;;;-142.02;100.00;61695.09;5030093;28;20091;-71
2022/01/27 06:14:30;;;;;;;15.10;10.88;;;;;;;-6.05;92.01;99751.25;5030441;28;20866;-69
2022/01/27 06:16:56;;;;;;;14.52;10.45;;;;;;;-6.80;89.74;99889.09;5002923;28;20455;-70
2022/01/27 06:19:26;;;;;;;13.10;11.48;;;;;;;-6.80;89.90;99884.00;4991891;28;20050;-70
2022/01/27 06:21:52;;;;;;;11.35;8.75;;;;;;;-6.82;89.66;99893.28;4992029;28;20049;-70
2022/01/27 06:24:18;;;;;;;11.30;7.68;;;;;;;-6.82;89.92;99890.75;4982376;28;20154;-71
2022/01/27 06:26:44;;;;;;;12.57;7.82;;;;;;;-6.83;90.01;99886.50;4980120;28;20064;-70
2022/01/27 06:29:11;;;;;;;10.38;9.13;;;;;;;-6.82;90.09;99885.69;5009755;28;20046;-70
2022/01/27 06:31:36;;;;;;;7.53;6.80;;;;;;;-6.77;89.36;99888.31;4991114;28;20049;-70
2022/01/27 06:34:03;;;;;;;10.25;8.68;;;;;;;-6.77;89.08;99878.97;5009533;28;20107;-72
2022/01/27 06:36:29;;;;;;;8.00;6.75;;;;;;;-6.77;89.23;99876.44;4992289;28;20058;-71
2022/01/27 06:38:55;;;;;;;11.50;10.25;;;;;;;-6.83;89.54;99876.34;4991499;28;20081;-71
2022/01/27 06:41:21;;;;;;;8.20;7.40;;;;;;;-6.87;89.88;99878.00;5009160;28;20144;-71
2022/01/27 06:43:48;;;;;;;5.65;5.13;;;;;;;-6.81;89.56;99886.53;5010462;28;20049;-71
2022/01/27 06:46:14;;;;;;;6.68;6.03;;;;;;;-6.82;89.28;99878.06;5029063;28;20092;-72
2022/01/27 06:48:40;;;;;;;12.15;8.52;;;;;;;-6.88;88.72;99883.91;5025256;28;20053;-71
2022/01/27 06:51:08;;;;;;;11.23;9.50;;;;;;;-6.86;89.45;99883.94;5007949;28;20060;-72
2022/01/27 06:53:34;;;;;;;22.67;12.98;;;;;;;-6.79;89.48;99890.81;4989154;28;20187;-72
2022/01/27 06:56:01;;;;;;;34.15;16.75;;;;;;;-142.02;100.00;61695.09;4990002;28;20518;-72
2022/01/27 06:58:28;;;;;;;29.85;16.63;;;;;;;-142.02;100.00;61695.09;5008596;28;20514;-72
2022/01/27 07:00:54;;;;;;;35.95;15.75;;;;;;;-142.02;100.00;61695.09;5008950;28;20107;-72
2022/01/27 07:03:20;;;;;;;40.65;21.58;;;;;;;-142.02;100.00;61695.09;4990906;28;20061;-72
2022/01/27 07:05:46;;;;;;;27.83;16.80;;;;;;;-142.02;100.00;61695.09;4989391;28;20046;-71
2022/01/27 07:08:14;;;;;;;33.67;21.08;;;;;;;-142.02;100.00;61695.09;4996384;28;20657;-72
2022/01/27 07:10:40;;;;;;;29.25;17.05;;;;;;;-142.02;100.00;61695.09;4972031;28;20197;-71
2022/01/27 07:13:07;;;;;;;29.13;16.48;;;;;;;-142.02;100.00;61695.09;5022809;28;20144;-71
2022/01/27 07:15:33;;;;;;;22.63;13.40;;;;;;;-142.02;100.00;61695.09;5009442;28;20143;-69
2022/01/27 07:17:59;;;;;;;22.52;11.57;;;;;;;-142.02;100.00;61695.09;4991066;28;20096;-72
2022/01/27 07:20:25;;;;;;;23.35;11.68;;;;;;;-142.02;100.00;61695.09;4991252;28;20164;-71
2022/01/27 07:22:51;;;;;;;20.05;11.48;;;;;;;-142.02;100.00;61695.09;5008761;28;20054;-71
2022/01/27 07:25:17;;;;;;;19.77;13.32;;;;;;;-142.02;100.00;61695.09;4991035;28;20600;-71
2022/01/27 07:27:44;;;;;;;19.15;11.63;;;;;;;-142.02;100.00;61695.09;4975116;28;20050;-71
2022/01/27 07:30:10;;;;;;;12.90;10.02;;;;;;;-142.02;100.00;61695.09;4959198;28;20073;-70
2022/01/27 07:32:37;;;;;;;10.57;8.80;;;;;;;-142.02;100.00;61695.09;4997502;28;20071;-71
2022/01/27 07:35:04;;;;;;;12.57;10.40;;;;;;;-142.02;100.00;61695.09;4991844;28;20054;-71
2022/01/27 07:37:30;;;;;;;10.75;8.10;;;;;;;-142.02;100.00;61695.09;5008461;28;20129;-70
2022/01/27 07:39:56;;;;;;;11.60;9.05;;;;;;;-142.02;100.00;61695.09;5008844;28;20601;-70
2022/01/27 07:42:23;;;;;;;14.40;7.80;;;;;;;-142.02;100.00;61695.09;4991059;28;20050;-71
2022/01/27 07:44:49;;;;;;;9.43;8.40;;;;;;;-142.02;100.00;61695.09;4966702;28;20054;-71
2022/01/27 07:47:15;;;;;;;10.68;7.93;;;;;;;-142.02;100.00;61695.09;5000078;28;20079;-71
2022/01/27 07:49:42;;;;;;;14.07;10.00;;;;;;;-142.02;100.00;61695.09;5030672;28;20507;-69
2022/01/27 07:52:08;;;;;;;17.98;10.77;;;;;;;-142.02;100.00;61695.09;5014383;28;20053;-70
2022/01/27 07:54:34;;;;;;;10.05;7.38;;;;;;;-142.02;100.00;61695.09;5031568;28;20049;-70
2022/01/27 07:57:01;;;;;;;7.57;6.07;;;;;;;-142.02;100.00;61695.09;5027111;28;20406;-70
2022/01/27 07:59:27;;;;;;;7.55;6.85;;;;;;;-142.02;100.00;61695.09;4977541;28;20157;-70
2022/01/27 08:01:53;;;;;;;10.30;7.68;;;;;;;-142.02;100.00;61695.09;4994785;28;20613;-70
2022/01/27 08:04:19;;;;;;;9.40;7.57;;;;;;;-142.02;100.00;61695.09;4995055;28;20544;-71
2022/01/27 08:06:45;;;;;;;10.85;7.13;;;;;;;-142.02;100.00;61695.09;4994684;28;20042;-71
2022/01/27 08:09:11;;;;;;;7.65;6.80;;;;;;;-142.02;100.00;61695.09;4990790;28;20065;-73
2022/01/27 08:11:37;;;;;;;5.38;5.00;;;;;;;-142.02;100.00;61695.09;4998826;28;20039;-72
2022/01/27 08:14:03;;;;;;;8.60;7.70;;;;;;;-142.02;100.00;61695.09;4975169;28;20062;-72
2022/01/27 08:16:29;;;;;;;5.00;4.57;;;;;;;-142.02;100.00;61695.09;5012144;28;20399;-71
2022/01/27 08:18:57;;;;;;;4.97;4.50;;;;;;;-142.02;100.00;61695.09;5011847;28;20053;-72
2022/01/27 08:21:23;;;;;;;7.60;6.82;;;;;;;-142.02;100.00;61695.09;4994215;28;20053;-72
2022/01/27 08:23:51;;;;;;;4.63;3.90;;;;;;;-142.02;100.00;61695.09;4993957;28;20057;-72
2022/01/27 08:26:29;;;;;;;3.17;2.95;;;;;;;-142.02;100.00;61695.09;4994119;28;20057;-72
2022/01/27 08:29:08;;;;;;;4.00;3.10;;;;;;;-142.02;100.00;61695.09;4995614;28;20056;-71
2022/01/27 08:31:42;;;;;;;2.80;2.60;;;;;;;-142.02;100.00;61695.09;4977506;28;20054;-71
2022/01/27 08:34:14;;;;;;;2.58;2.47;;;;;;;-142.02;100.00;61695.09;4993698;28;20480;-71
2022/01/27 08:36:41;;;;;;;2.58;2.45;;;;;;;-142.02;100.00;61695.09;4994706;28;20470;-71
2022/01/27 08:39:07;;;;;;;3.13;2.83;;;;;;;-142.02;100.00;61695.09;5011303;28;20053;-72
2022/01/27 08:41:34;;;;;;;3.72;3.42;;;;;;;-142.02;100.00;61695.09;5010983;28;20426;-71
2022/01/27 08:44:01;;;;;;;3.25;2.90;;;;;;;-142.02;100.00;61695.09;5010958;28;20136;-71
2022/01/27 08:46:27;;;;;;;2.97;2.78;;;;;;;-142.02;100.00;61695.09;4994280;28;20482;-71
2022/01/27 08:48:53;;;;;;;2.20;2.10;;;;;;;-142.02;100.00;61695.09;5008929;28;20136;-71
2022/01/27 08:51:21;;;;;;;3.00;2.80;;;;;;;-142.02;100.00;61695.09;5010968;28;20054;-70
2022/01/27 08:53:48;;;;;;;3.53;3.30;;;;;;;-142.02;100.00;61695.09;4990801;28;20050;-71
2022/01/27 08:56:16;;;;;;;2.70;2.60;;;;;;;-142.02;100.00;61695.09;5001078;28;20526;-71
2022/01/27 08:58:43;;;;;;;2.42;2.33;;;;;;;-142.02;100.00;61695.09;5010656;28;20179;-71
2022/01/27 09:01:09;;;;;;;3.63;2.58;;;;;;;-142.02;100.00;61695.09;5010602;28;20108;-71
2022/01/27 09:03:35;;;;;;;2.63;2.42;;;;;;;-142.02;100.00;61695.09;5010455;28;20657;-71
2022/01/27 09:06:01;;;;;;;4.25;3.67;;;;;;;-142.02;100.00;61695.09;4993312;28;20050;-72
2022/01/27 09:08:28;;;;;;;3.53;3.22;;;;;;;-142.02;100.00;61695.09;5010416;28;20104;-72
2022/01/27 09:10:54;;;;;;;3.58;3.17;;;;;;;-142.02;100.00;61695.09;4993378;28;20053;-72
2022/01/27 09:13:20;;;;;;;3.78;3.47;;;;;;;-142.02;100.00;61695.09;5017282;28;20053;-72
2022/01/27 09:15:49;;;;;;;2.60;2.40;;;;;;;-142.02;100.00;61695.09;5005328;28;20041;-72
2022/01/27 09:18:15;;;;;;;3.17;2.97;;;;;;;-142.02;100.00;61695.09;5029039;28;20128;-71
2022/01/27 09:20:42;;;;;;;3.83;3.50;;;;;;;-142.02;100.00;61695.09;5013600;28;20049;-78
2022/01/27 09:23:13;;;;;;;2.33;2.22;;;;;;;-142.02;100.00;61695.09;5012614;28;20080;-72
2022/01/27 09:25:45;;;;;;;2.88;2.67;;;;;;;-142.02;100.00;61695.09;4995711;28;20049;-73
2022/01/27 09:28:12;;;;;;;2.42;2.22;;;;;;;-142.02;100.00;61695.09;5029847;28;20057;-72
2022/01/27 09:30:38;;;;;;;5.15;2.83;;;;;;;-142.02;100.00;61695.09;4963603;28;20045;-73
2022/01/27 09:33:04;;;;;;;4.07;3.40;;;;;;;-142.02;100.00;61695.09;5007057;28;20058;-73
2022/01/27 09:35:31;;;;;;;6.68;3.70;;;;;;;-142.02;100.00;61695.09;4993076;28;20061;-73
2022/01/27 09:37:58;;;;;;;3.88;3.55;;;;;;;-142.02;100.00;61695.09;4993095;28;20140;-74
2022/01/27 09:40:25;;;;;;;4.15;3.85;;;;;;;-142.02;100.00;61695.09;4974779;28;20600;-73
2022/01/27 09:42:53;;;;;;;6.05;3.95;;;;;;;-142.02;100.00;61695.09;4982028;28;20058;-73
2022/01/27 09:45:21;;;;;;;4.63;4.22;;;;;;;-142.02;100.00;61695.09;5002486;28;20069;-74
2022/01/27 09:47:54;;;;;;;5.40;4.93;;;;;;;-142.02;100.00;61695.09;5010081;28;20050;-74
2022/01/27 09:50:28;;;;;;;5.20;4.70;;;;;;;-142.02;100.00;61695.09;4977634;28;20050;-74
2022/01/27 09:52:54;;;;;;;4.32;3.92;;;;;;;-142.02;100.00;61695.09;4995655;28;20050;-74
2022/01/27 09:55:21;;;;;;;4.32;3.80;;;;;;;-142.02;100.00;61695.09;5007426;28;20072;-73
2022/01/27 09:57:47;;;;;;;4.55;3.42;;;;;;;-142.02;100.00;61695.09;5016871;28;20081;-75
2022/01/27 10:00:14;;;;;;;2.67;2.50;;;;;;;-142.02;100.00;61695.09;5009930;28;20042;-72
2022/01/27 10:03:01;;;;;;;3.10;2.80;;;;;;;-142.02;100.00;61695.09;5010580;28;20046;-72
2022/01/27 10:05:27;;;;;;;2.75;2.60;;;;;;;-142.02;100.00;61695.09;4979366;28;20050;-71
2022/01/27 10:07:53;;;;;;;3.70;3.42;;;;;;;-142.02;100.00;61695.09;5010952;28;20045;-73
2022/01/27 10:10:19;;;;;;;4.43;3.22;;;;;;;-142.02;100.00;61695.09;4992381;28;20057;-73
2022/01/27 10:12:51;;;;;;;2.72;2.53;;;;;;;-142.02;100.00;61695.09;5009549;28;20050;-73
2022/01/27 10:15:20;;;;;;;3.72;3.05;;;;;;;-142.02;100.00;61695.09;5009889;28;20140;-73
2022/01/27 10:18:09;;;;;;;2.60;2.47;;;;;;;-142.02;100.00;61695.09;5010761;28;20108;-73
2022/01/27 10:20:37;;;;;;;3.22;2.92;;;;;;;-142.02;100.00;61695.09;5009862;28;20088;-72
2022/01/27 10:23:15;;;;;;;2.83;2.65;;;;;;;-142.02;100.00;61695.09;5009591;28;20058;-73
2022/01/27 10:25:51;;;;;;;3.45;3.15;;;;;;;-142.02;100.00;61695.09;5010477;28;20092;-72
2022/01/27 10:28:35;;;;;;;6.47;3.33;;;;;;;-142.02;100.00;61695.09;4992139;28;20045;-72
2022/01/27 10:31:05;;;;;;;3.33;3.13;;;;;;;-142.02;100.00;61695.09;4969217;28;20481;-72
2022/01/27 10:33:46;;;;;;;3.60;3.30;;;;;;;-142.02;100.00;61695.09;4981486;28;20056;-73
2022/01/27 10:36:25;;;;;;;3.92;3.10;;;;;;;-142.02;100.00;61695.09;5011903;28;20057;-72
2022/01/27 10:38:56;;;;;;;3.13;2.92;;;;;;;-142.02;100.00;61695.09;5009784;28;20169;-72
2022/01/27 10:41:24;;;;;;;3.58;3.28;;;;;;;-142.02;100.00;61695.09;5007651;28;20046;-73
2022/01/27 10:43:51;;;;;;;3.20;3.00;;;;;;;-142.02;100.00;61695.09;4990649;28;20085;-71
2022/01/27 10:46:22;;;;;;;3.92;3.00;;;;;;;-142.02;100.00;61695.09;4974032;28;20054;-72
2022/01/27 10:49:02;;;;;;;4.35;3.75;;;;;;;-142.02;100.00;61695.09;4988542;28;20046;-72
2022/01/27 10:51:37;;;;;;;4.30;3.63;;;;;;;-142.02;100.00;61695.09;4977934;28;20160;-72
2022/01/27 10:54:08;;;;;;;3.60;3.30;;;;;;;-142.02;100.00;61695.09;5007966;28;20127;-72
2022/01/27 10:56:36;;;;;;;3.45;3.25;;;;;;;-142.02;100.00;61695.09;5011113;28;20052;-73
2022/01/27 10:59:04;;;;;;;3.13;2.92;;;;;;;-142.02;100.00;61695.09;4975457;28;20042;-73
2022/01/27 11:01:36;;;;;;;3.53;3.22;;;;;;;-142.02;100.00;61695.09;4991577;28;20141;-72
2022/01/27 11:04:04;;;;;;;3.05;2.85;;;;;;;-142.02;100.00;61695.09;4975170;28;20437;-73
2022/01/27 11:06:33;;;;;;;2.97;2.78;;;;;;;-142.02;100.00;61695.09;5008674;28;20050;-73
2022/01/27 11:09:03;;;;;;;4.10;3.80;;;;;;;-142.02;100.00;61695.09;5008755;28;20046;-73
2022/01/27 11:11:30;;;;;;;2.42;2.33;;;;;;;-142.02;100.00;61695.09;5008614;28;20053;-73
2022/01/27 11:13:59;;;;;;;4.85;3.65;;;;;;;-142.02;100.00;61695.09;4991062;28;20053;-73
2022/01/27 11:16:33;;;;;;;3.42;3.20;;;;;;;-142.02;100.00;61695.09;4991739;28;20070;-73
2022/01/27 11:19:21;;;;;;;3.38;2.60;;;;;;;-142.02;100.00;61695.09;4996317;28;20525;-73
2022/01/27 11:21:53;;;;;;;3.80;3.50;;;;;;;-142.02;100.00;61695.09;5002907;28;20045;-73
2022/01/27 11:24:27;;;;;;;3.92;2.92;;;;;;;-142.02;100.00;61695.09;5010514;28;20536;-73
2022/01/27 11:26:54;;;;;;;3.13;2.92;;;;;;;-142.02;100.00;61695.09;5016829;28;20112;-76
2022/01/27 11:29:21;;;;;;;4.03;3.60;;;;;;;-142.02;100.00;61695.09;5001458;28;20053;-76
2022/01/27 11:32:33;;;;;;;4.10;3.10;;;;;;;-142.02;100.00;61695.09;5030582;28;20614;-71
2022/01/27 11:34:59;;;;;;;3.20;2.95;;;;;;;-142.02;100.00;61695.09;4943035;28;20150;-71
2022/01/27 11:37:36;;;;;;;3.25;3.00;;;;;;;-142.02;100.00;61695.09;4998507;28;20049;-71
2022/01/27 11:40:12;;;;;;;3.08;2.72;;;;;;;-142.02;100.00;61695.09;5028581;28;20083;-71
2022/01/27 11:42:42;;;;;;;3.88;3.67;;;;;;;-142.02;100.00;61695.09;4980742;28;20076;-71
2022/01/27 11:45:21;;;;;;;3.55;2.63;;;;;;;-142.02;100.00;61695.09;5013618;28;20099;-71
2022/01/27 11:47:58;;;;;;;3.40;3.20;;;;;;;-142.02;100.00;61695.09;5031740;28;20060;-71
2022/01/27 11:50:36;;;;;;;4.78;3.00;;;;;;;-142.02;100.00;61695.09;5014103;28;20144;-72